Terminal Aerodrome Forecast
Issued by NWS

Home | Current Version | Previous Version | Text Only | Print | Product List | Glossary On
Versions: 1 2 3 4 5 6 7 8 9 10 11 12
000
FTUS46 KPDT 011700
TAFALW
TAF
KALW 011736Z 0118/0218 VRB03KT P6SM FEW250
     FM020300 10005KT P6SM SCT250
     FM021500 17003KT P6SM SCT050 BKN100 OVC150=

USA.gov is the U.S. government's official web portal to all federal, state and local government web resources and services.